createdAt,value
2019-01-31T00:00:19.244Z,991.31
2019-01-31T00:01:19.230Z,991.27
2019-01-31T00:02:19.217Z,991.26
2019-01-31T00:03:19.210Z,991.26
2019-01-31T00:04:19.192Z,991.31
2019-01-31T00:05:19.177Z,991.32
2019-01-31T00:06:19.162Z,991.29
2019-01-31T00:07:19.155Z,991.31
2019-01-31T00:08:19.130Z,991.32
2019-01-31T00:09:19.124Z,991.34
2019-01-31T00:10:19.110Z,991.40
2019-01-31T00:11:19.096Z,991.30
2019-01-31T00:12:19.087Z,991.32
2019-01-31T00:13:19.074Z,991.32
2019-01-31T00:14:19.063Z,991.32
2019-01-31T00:15:19.049Z,991.32
2019-01-31T00:16:19.036Z,991.31
2019-01-31T00:17:19.018Z,991.28
2019-01-31T00:18:19.011Z,991.31
2019-01-31T00:19:18.996Z,991.28
2019-01-31T00:20:18.982Z,991.24
2019-01-31T00:21:18.967Z,991.25
2019-01-31T00:22:18.955Z,991.27
2019-01-31T00:23:18.952Z,991.28
2019-01-31T00:24:18.930Z,991.26
2019-01-31T00:25:18.918Z,991.26
2019-01-31T00:26:18.905Z,991.25
2019-01-31T00:27:19.029Z,991.27
2019-01-31T00:28:18.879Z,991.32
2019-01-31T00:29:18.863Z,991.29
2019-01-31T00:30:18.850Z,991.25
2019-01-31T00:31:18.839Z,991.30
2019-01-31T00:32:18.824Z,991.27
2019-01-31T00:33:18.813Z,991.29
2019-01-31T00:34:18.798Z,991.28
2019-01-31T00:35:18.786Z,991.28
2019-01-31T00:36:18.779Z,991.30
2019-01-31T00:37:18.765Z,991.31
2019-01-31T00:38:18.750Z,991.32
2019-01-31T00:39:18.741Z,991.33
2019-01-31T00:40:18.722Z,991.29
2019-01-31T00:41:18.710Z,991.33
2019-01-31T00:42:18.691Z,991.29
2019-01-31T00:43:18.682Z,991.31
2019-01-31T00:44:18.671Z,991.38
2019-01-31T00:45:18.661Z,991.39
2019-01-31T00:46:18.657Z,991.39
2019-01-31T00:47:18.632Z,991.38
2019-01-31T00:48:18.618Z,991.34
2019-01-31T00:49:18.605Z,991.36
2019-01-31T00:50:18.595Z,991.36
2019-01-31T00:51:18.581Z,991.35
2019-01-31T00:52:18.566Z,991.36
2019-01-31T00:53:18.550Z,991.39
2019-01-31T00:54:18.541Z,991.38
2019-01-31T00:55:18.526Z,991.44
2019-01-31T00:56:18.522Z,991.41
2019-01-31T00:57:18.502Z,991.34
2019-01-31T00:58:18.487Z,991.35
2019-01-31T00:59:18.477Z,991.31
2019-01-31T01:00:18.462Z,991.29
2019-01-31T01:01:18.444Z,991.29
2019-01-31T01:02:18.441Z,991.31
2019-01-31T01:03:18.417Z,991.26
2019-01-31T01:04:18.411Z,991.28
2019-01-31T01:05:18.436Z,991.27
2019-01-31T01:06:18.382Z,991.29
2019-01-31T01:07:18.370Z,991.28
2019-01-31T01:08:18.360Z,991.27
2019-01-31T01:09:18.360Z,991.21
2019-01-31T01:10:18.456Z,991.22
2019-01-31T01:11:18.323Z,991.22
2019-01-31T01:12:18.305Z,991.18
2019-01-31T01:13:18.294Z,991.18
2019-01-31T01:14:18.278Z,991.23
2019-01-31T01:15:18.267Z,991.15
2019-01-31T01:16:18.255Z,991.21
2019-01-31T01:17:18.242Z,991.21
2019-01-31T01:18:18.230Z,991.18
2019-01-31T01:19:18.212Z,991.19
2019-01-31T01:20:18.201Z,991.20
2019-01-31T01:21:18.188Z,991.18
2019-01-31T01:22:18.178Z,991.17
2019-01-31T01:23:18.165Z,991.15
2019-01-31T01:24:18.148Z,991.12
2019-01-31T01:25:18.133Z,991.11
2019-01-31T01:26:18.127Z,991.10
2019-01-31T01:27:18.110Z,991.05
2019-01-31T01:28:18.096Z,991.06
2019-01-31T01:29:18.092Z,991.04
2019-01-31T01:30:18.071Z,991.02
2019-01-31T01:31:18.059Z,991.03
2019-01-31T01:32:18.054Z,991.04
2019-01-31T01:33:18.028Z,991.10
2019-01-31T01:34:18.017Z,991.03
2019-01-31T01:35:18.004Z,991.05
2019-01-31T01:36:17.995Z,991.13
2019-01-31T01:37:17.989Z,991.06
2019-01-31T01:38:17.974Z,991.04
2019-01-31T01:39:19.306Z,991.09
2019-01-31T01:40:17.945Z,991.04
2019-01-31T01:41:17.926Z,991.06
2019-01-31T01:42:17.928Z,991.04
2019-01-31T01:43:17.897Z,991.06
2019-01-31T01:44:17.889Z,991.02
2019-01-31T01:45:17.873Z,991.07
2019-01-31T01:46:17.856Z,991.08
2019-01-31T01:47:17.843Z,991.09
2019-01-31T01:48:17.838Z,991.07
2019-01-31T01:49:17.823Z,991.08
2019-01-31T01:50:17.812Z,991.08
2019-01-31T01:51:17.798Z,991.03
2019-01-31T01:52:17.783Z,991.04
2019-01-31T01:53:17.768Z,991.01
2019-01-31T01:54:17.759Z,990.98
2019-01-31T01:55:17.844Z,990.98
2019-01-31T01:56:17.731Z,990.98
2019-01-31T01:57:17.718Z,990.94
2019-01-31T01:58:17.702Z,990.93
2019-01-31T01:59:17.692Z,990.95
2019-01-31T02:00:17.674Z,990.93
2019-01-31T02:01:17.660Z,990.92
2019-01-31T02:02:17.652Z,990.94
2019-01-31T02:03:17.638Z,990.91
2019-01-31T02:04:17.629Z,990.90
2019-01-31T02:05:17.611Z,990.86
2019-01-31T02:06:17.601Z,990.87
2019-01-31T02:07:17.588Z,990.90
2019-01-31T02:08:17.574Z,990.86
2019-01-31T02:09:17.565Z,990.92
2019-01-31T02:10:17.551Z,990.82
2019-01-31T02:11:17.537Z,990.82
2019-01-31T02:12:17.527Z,990.83
2019-01-31T02:13:17.506Z,990.84
2019-01-31T02:14:17.494Z,990.82
2019-01-31T02:15:17.483Z,990.80
2019-01-31T02:16:17.472Z,990.84
2019-01-31T02:17:17.459Z,990.84
2019-01-31T02:18:17.445Z,990.84
2019-01-31T02:19:17.438Z,990.85
2019-01-31T02:20:17.415Z,990.85
2019-01-31T02:21:17.403Z,990.86
2019-01-31T02:22:17.389Z,990.88
2019-01-31T02:23:17.379Z,990.85
2019-01-31T02:24:17.374Z,990.89
2019-01-31T02:25:17.353Z,990.89
2019-01-31T02:26:17.335Z,990.91
2019-01-31T02:27:17.326Z,990.87
2019-01-31T02:28:17.316Z,990.90
2019-01-31T02:29:17.299Z,990.84
2019-01-31T02:30:17.299Z,990.84
2019-01-31T02:31:17.275Z,990.88
2019-01-31T02:32:17.264Z,990.82
2019-01-31T02:33:17.249Z,990.81
2019-01-31T02:34:17.235Z,990.78
2019-01-31T02:35:17.233Z,990.75
2019-01-31T02:36:17.219Z,990.77
2019-01-31T02:37:17.199Z,990.73
2019-01-31T02:38:17.186Z,990.77
2019-01-31T02:39:17.177Z,990.71
2019-01-31T02:40:17.160Z,990.72
2019-01-31T02:41:17.145Z,990.69
2019-01-31T02:42:17.136Z,990.69
2019-01-31T02:43:17.117Z,990.67
2019-01-31T02:44:17.110Z,990.68
2019-01-31T02:45:17.091Z,990.66
2019-01-31T02:46:17.077Z,990.62
2019-01-31T02:47:17.067Z,990.67
2019-01-31T02:48:17.065Z,990.67
2019-01-31T02:49:17.040Z,990.63
2019-01-31T02:50:17.029Z,990.64
2019-01-31T02:51:17.016Z,990.65
2019-01-31T02:52:16.999Z,990.66
2019-01-31T02:53:17.044Z,990.63
2019-01-31T02:54:16.970Z,990.64
2019-01-31T02:55:16.962Z,990.64
2019-01-31T02:56:16.948Z,990.60
2019-01-31T02:57:16.938Z,990.60
2019-01-31T02:58:16.921Z,990.59
2019-01-31T02:59:16.913Z,990.60
2019-01-31T03:00:16.902Z,990.61
2019-01-31T03:01:16.884Z,990.59
2019-01-31T03:02:16.876Z,990.60
2019-01-31T03:03:16.857Z,990.60
2019-01-31T03:04:16.843Z,990.62
2019-01-31T03:05:16.832Z,990.60
2019-01-31T03:06:16.819Z,990.63
2019-01-31T03:07:16.808Z,990.61
2019-01-31T03:08:16.785Z,990.60
2019-01-31T03:09:16.776Z,990.61
2019-01-31T03:10:16.762Z,990.67
2019-01-31T03:11:16.756Z,990.66
2019-01-31T03:12:16.749Z,990.65
2019-01-31T03:13:16.723Z,990.62
2019-01-31T03:14:16.719Z,990.62
2019-01-31T03:15:16.698Z,990.63
2019-01-31T03:16:16.684Z,990.63
2019-01-31T03:17:16.680Z,990.66
2019-01-31T03:18:16.648Z,990.62
2019-01-31T03:19:16.637Z,990.61
2019-01-31T03:20:16.630Z,990.61
2019-01-31T03:21:16.616Z,990.60
2019-01-31T03:22:16.606Z,990.60
2019-01-31T03:23:16.591Z,990.54
2019-01-31T03:24:16.569Z,990.59
2019-01-31T03:25:16.564Z,990.55
2019-01-31T03:26:16.549Z,990.57
2019-01-31T03:27:16.542Z,990.53
2019-01-31T03:28:16.525Z,990.55
2019-01-31T03:29:16.514Z,990.54
2019-01-31T03:30:16.535Z,990.53
2019-01-31T03:31:16.503Z,990.50
2019-01-31T03:32:16.472Z,990.51
2019-01-31T03:33:16.462Z,990.49
2019-01-31T03:34:16.443Z,990.48
2019-01-31T03:35:16.434Z,990.45
2019-01-31T03:36:16.423Z,990.46
2019-01-31T03:37:16.398Z,990.46
2019-01-31T03:38:16.386Z,990.46
2019-01-31T03:39:16.375Z,990.43
2019-01-31T03:40:16.372Z,990.43
2019-01-31T03:41:16.354Z,990.45
2019-01-31T03:42:16.339Z,990.42
2019-01-31T03:43:16.325Z,990.40
2019-01-31T03:44:16.311Z,990.39
2019-01-31T03:45:16.310Z,990.40
2019-01-31T03:46:16.285Z,990.38
2019-01-31T03:47:16.271Z,990.38
2019-01-31T03:48:16.255Z,990.42
2019-01-31T03:49:16.249Z,990.41
2019-01-31T03:50:16.237Z,990.40
2019-01-31T03:51:16.226Z,990.43
2019-01-31T03:52:16.205Z,990.46
2019-01-31T03:53:16.192Z,990.44
2019-01-31T03:54:16.184Z,990.45
2019-01-31T03:55:16.166Z,990.47
2019-01-31T03:56:16.155Z,990.52
2019-01-31T03:57:16.137Z,990.51
2019-01-31T03:58:16.122Z,990.49
2019-01-31T03:59:16.109Z,990.50
2019-01-31T04:00:16.101Z,990.50
2019-01-31T04:01:16.098Z,990.50
2019-01-31T04:02:16.073Z,990.48
2019-01-31T04:03:16.056Z,990.48
2019-01-31T04:04:16.048Z,990.48
2019-01-31T04:05:16.036Z,990.46
2019-01-31T04:06:16.023Z,990.44
2019-01-31T04:07:16.010Z,990.50
2019-01-31T04:08:15.992Z,990.48
2019-01-31T04:09:15.980Z,990.44
2019-01-31T04:10:19.036Z,990.45
2019-01-31T04:11:15.959Z,990.48
2019-01-31T04:12:15.981Z,990.47
2019-01-31T04:13:15.939Z,990.49
2019-01-31T04:14:15.965Z,990.49
2019-01-31T04:15:15.904Z,990.50
2019-01-31T04:16:15.993Z,990.48
2019-01-31T04:17:15.875Z,990.48
2019-01-31T04:18:15.882Z,990.46
2019-01-31T04:19:15.870Z,990.42
2019-01-31T04:20:15.839Z,990.41
2019-01-31T04:21:15.964Z,990.42
2019-01-31T04:22:15.863Z,990.39
2019-01-31T04:23:15.818Z,990.39
2019-01-31T04:24:15.834Z,990.40
2019-01-31T04:25:15.781Z,990.42
2019-01-31T04:26:15.797Z,990.39
2019-01-31T04:27:15.746Z,990.38
2019-01-31T04:28:15.762Z,990.39
2019-01-31T04:29:15.724Z,990.40
2019-01-31T04:30:15.705Z,990.40
2019-01-31T04:31:15.698Z,990.45
2019-01-31T04:32:15.693Z,990.40
2019-01-31T04:33:15.683Z,990.42
2019-01-31T04:34:15.657Z,990.42
2019-01-31T04:35:15.646Z,990.40
2019-01-31T04:36:15.633Z,990.41
2019-01-31T04:37:15.619Z,990.39
2019-01-31T04:38:15.616Z,990.43
2019-01-31T04:39:15.606Z,990.41
2019-01-31T04:40:15.709Z,990.44
2019-01-31T04:41:15.573Z,990.41
2019-01-31T04:42:15.549Z,990.41
2019-01-31T04:43:15.542Z,990.42
2019-01-31T04:44:15.534Z,990.44
2019-01-31T04:45:15.523Z,990.48
2019-01-31T04:46:15.515Z,990.43
2019-01-31T04:47:15.500Z,990.44
2019-01-31T04:48:15.487Z,990.43
2019-01-31T04:49:15.468Z,990.38
2019-01-31T04:50:15.456Z,990.37
2019-01-31T04:51:15.444Z,990.40
2019-01-31T04:52:15.429Z,990.39
2019-01-31T04:53:15.412Z,990.39
2019-01-31T04:54:15.401Z,990.42
2019-01-31T04:55:15.391Z,990.38
2019-01-31T04:56:15.383Z,990.40
2019-01-31T04:57:15.368Z,990.43
2019-01-31T04:58:15.360Z,990.38
2019-01-31T04:59:15.343Z,990.42
2019-01-31T05:00:15.331Z,990.39
2019-01-31T05:01:15.317Z,990.41
2019-01-31T05:02:15.303Z,990.42
2019-01-31T05:03:15.289Z,990.46
2019-01-31T05:04:15.282Z,990.44
2019-01-31T05:05:15.269Z,990.42
2019-01-31T05:06:15.261Z,990.42
2019-01-31T05:07:15.241Z,990.40
2019-01-31T05:08:15.230Z,990.43
2019-01-31T05:09:15.213Z,990.41
2019-01-31T05:10:15.211Z,990.36
2019-01-31T05:11:15.191Z,990.42
2019-01-31T05:12:15.198Z,990.40
2019-01-31T05:13:15.165Z,990.35
2019-01-31T05:14:15.153Z,990.37
2019-01-31T05:15:15.143Z,990.38
2019-01-31T05:16:15.128Z,990.36
2019-01-31T05:17:15.115Z,990.38
2019-01-31T05:18:15.107Z,990.37
2019-01-31T05:19:15.094Z,990.38
2019-01-31T05:20:15.187Z,990.38
2019-01-31T05:21:15.071Z,990.39
2019-01-31T05:22:15.060Z,990.38
2019-01-31T05:23:15.042Z,990.36
2019-01-31T05:24:15.044Z,990.36
2019-01-31T05:25:15.021Z,990.38
2019-01-31T05:26:15.003Z,990.38
2019-01-31T05:27:14.990Z,990.33
2019-01-31T05:28:14.987Z,990.32
2019-01-31T05:29:14.985Z,990.33
2019-01-31T05:30:14.964Z,990.33
2019-01-31T05:31:14.944Z,990.31
2019-01-31T05:32:14.931Z,990.26
2019-01-31T05:33:14.912Z,990.31
2019-01-31T05:34:14.905Z,990.28
2019-01-31T05:35:14.890Z,990.24
2019-01-31T05:36:14.881Z,990.28
2019-01-31T05:37:14.870Z,990.27
2019-01-31T05:38:17.370Z,990.29
2019-01-31T05:39:14.848Z,990.28
2019-01-31T05:40:14.836Z,990.27
2019-01-31T05:41:14.819Z,990.26
2019-01-31T05:42:14.808Z,990.29
2019-01-31T05:43:14.791Z,990.31
2019-01-31T05:44:14.783Z,990.31
2019-01-31T05:45:14.773Z,990.34
2019-01-31T05:46:14.756Z,990.34
2019-01-31T05:47:14.742Z,990.38
2019-01-31T05:48:14.736Z,990.39
2019-01-31T05:49:14.724Z,990.38
2019-01-31T05:50:14.712Z,990.35
2019-01-31T05:51:14.697Z,990.40
2019-01-31T05:52:14.679Z,990.38
2019-01-31T05:53:14.669Z,990.37
2019-01-31T05:54:14.659Z,990.39
2019-01-31T05:55:14.642Z,990.39
2019-01-31T05:56:14.635Z,990.41
2019-01-31T05:57:14.622Z,990.38
2019-01-31T05:58:14.602Z,990.42
2019-01-31T05:59:14.594Z,990.40
2019-01-31T06:00:14.588Z,990.41
2019-01-31T06:01:14.572Z,990.42
2019-01-31T06:02:14.575Z,990.43
2019-01-31T06:03:14.551Z,990.42
2019-01-31T06:04:14.533Z,990.44
2019-01-31T06:05:14.527Z,990.41
2019-01-31T06:06:14.515Z,990.37
2019-01-31T06:07:14.495Z,990.42
2019-01-31T06:08:14.491Z,990.42
2019-01-31T06:09:14.480Z,990.40
2019-01-31T06:10:14.476Z,990.43
2019-01-31T06:11:14.478Z,990.42
2019-01-31T06:12:14.440Z,990.38
2019-01-31T06:13:14.427Z,990.42
2019-01-31T06:14:14.418Z,990.39
2019-01-31T06:15:14.416Z,990.40
2019-01-31T06:16:14.387Z,990.43
2019-01-31T06:17:14.370Z,990.37
2019-01-31T06:18:14.361Z,990.38
2019-01-31T06:19:14.350Z,990.36
2019-01-31T06:20:14.361Z,990.34
2019-01-31T06:21:14.327Z,990.40
2019-01-31T06:22:14.314Z,990.43
2019-01-31T06:23:14.313Z,990.43
2019-01-31T06:24:14.285Z,990.43
2019-01-31T06:25:14.277Z,990.44
2019-01-31T06:26:14.266Z,990.42
2019-01-31T06:27:14.253Z,990.45
2019-01-31T06:28:14.240Z,990.44
2019-01-31T06:29:14.241Z,990.45
2019-01-31T06:30:14.214Z,990.43
2019-01-31T06:31:14.202Z,990.44
2019-01-31T06:32:14.193Z,990.43
2019-01-31T06:33:14.182Z,990.42
2019-01-31T06:34:14.167Z,990.47
2019-01-31T06:35:14.165Z,990.51
2019-01-31T06:36:14.207Z,990.50
2019-01-31T06:37:14.129Z,990.52
2019-01-31T06:38:14.115Z,990.56
2019-01-31T06:39:14.102Z,990.53
2019-01-31T06:40:14.109Z,990.55
2019-01-31T06:41:18.629Z,990.57
2019-01-31T06:42:14.067Z,990.52
2019-01-31T06:43:14.057Z,990.54
2019-01-31T06:44:14.042Z,990.53
2019-01-31T06:45:14.032Z,990.52
2019-01-31T06:46:14.019Z,990.52
2019-01-31T06:47:14.008Z,990.50
2019-01-31T06:48:13.992Z,990.52
2019-01-31T06:49:13.971Z,990.52
2019-01-31T06:50:13.974Z,990.48
2019-01-31T06:51:13.951Z,990.46
2019-01-31T06:52:13.947Z,990.50
2019-01-31T06:53:13.927Z,990.49
2019-01-31T06:54:13.921Z,990.45
2019-01-31T06:55:13.910Z,990.49
2019-01-31T06:56:13.893Z,990.50
2019-01-31T06:57:13.882Z,990.47
2019-01-31T06:58:13.880Z,990.47
2019-01-31T06:59:14.618Z,990.43
2019-01-31T07:00:13.841Z,990.47
2019-01-31T07:01:13.833Z,990.48
2019-01-31T07:02:13.834Z,990.50
2019-01-31T07:03:13.812Z,990.50
2019-01-31T07:04:13.800Z,990.49
2019-01-31T07:05:13.787Z,990.48
2019-01-31T07:06:13.793Z,990.48
2019-01-31T07:07:13.768Z,990.51
2019-01-31T07:08:13.748Z,990.50
2019-01-31T07:09:13.737Z,990.49
2019-01-31T07:10:13.723Z,990.50
2019-01-31T07:11:13.711Z,990.50
2019-01-31T07:12:13.702Z,990.53
2019-01-31T07:13:13.687Z,990.47
2019-01-31T07:14:13.678Z,990.53
2019-01-31T07:15:13.661Z,990.52
2019-01-31T07:16:13.653Z,990.54
2019-01-31T07:17:13.640Z,990.56
2019-01-31T07:18:13.627Z,990.53
2019-01-31T07:19:13.615Z,990.57
2019-01-31T07:20:13.605Z,990.56
2019-01-31T07:21:13.592Z,990.57
2019-01-31T07:22:13.578Z,990.56
2019-01-31T07:23:13.562Z,990.57
2019-01-31T07:24:13.555Z,990.59
2019-01-31T07:25:13.543Z,990.57
2019-01-31T07:26:13.537Z,990.61
2019-01-31T07:27:13.518Z,990.58
2019-01-31T07:28:13.623Z,990.60
2019-01-31T07:29:13.490Z,990.62
2019-01-31T07:30:13.480Z,990.65
2019-01-31T07:31:13.470Z,990.62
2019-01-31T07:32:13.452Z,990.66
2019-01-31T07:33:13.440Z,990.65
2019-01-31T07:34:13.429Z,990.62
2019-01-31T07:35:13.426Z,990.66
2019-01-31T07:36:13.406Z,990.67
2019-01-31T07:37:13.392Z,990.67
2019-01-31T07:38:13.379Z,990.68
2019-01-31T07:39:13.379Z,990.66
2019-01-31T07:40:13.353Z,990.66
2019-01-31T07:41:13.342Z,990.69
2019-01-31T07:42:13.332Z,990.66
2019-01-31T07:43:13.314Z,990.68
2019-01-31T07:44:13.310Z,990.68
2019-01-31T07:45:13.294Z,990.67
2019-01-31T07:46:13.281Z,990.67
2019-01-31T07:47:13.272Z,990.73
2019-01-31T07:48:13.259Z,990.68
2019-01-31T07:49:13.236Z,990.66
2019-01-31T07:50:13.239Z,990.68
2019-01-31T07:51:13.222Z,990.67
2019-01-31T07:52:13.204Z,990.71
2019-01-31T07:53:13.195Z,990.68
2019-01-31T07:54:13.183Z,990.69
2019-01-31T07:55:13.170Z,990.71
2019-01-31T07:56:13.162Z,990.65
2019-01-31T07:57:13.151Z,990.64
2019-01-31T07:58:13.137Z,990.63
2019-01-31T07:59:13.124Z,990.66
2019-01-31T08:00:13.110Z,990.64
2019-01-31T08:01:13.096Z,990.65
2019-01-31T08:02:13.086Z,990.67
2019-01-31T08:03:13.078Z,990.65
2019-01-31T08:04:13.060Z,990.64
2019-01-31T08:05:13.049Z,990.64
2019-01-31T08:06:13.037Z,990.65
2019-01-31T08:07:13.024Z,990.66
2019-01-31T08:08:13.025Z,990.66
2019-01-31T08:09:13.009Z,990.63
2019-01-31T08:10:12.991Z,990.62
2019-01-31T08:11:12.981Z,990.73
2019-01-31T08:12:12.963Z,990.70
2019-01-31T08:13:12.954Z,990.69
2019-01-31T08:14:12.939Z,990.68
2019-01-31T08:15:12.927Z,990.66
2019-01-31T08:16:12.920Z,990.63
2019-01-31T08:17:12.904Z,990.67
2019-01-31T08:18:12.893Z,990.67
2019-01-31T08:19:12.885Z,990.65
2019-01-31T08:20:12.873Z,990.69
2019-01-31T08:21:12.862Z,990.70
2019-01-31T08:22:12.848Z,990.72
2019-01-31T08:23:12.835Z,990.73
2019-01-31T08:24:12.819Z,990.73
2019-01-31T08:25:12.809Z,990.75
2019-01-31T08:26:12.795Z,990.73
2019-01-31T08:27:12.784Z,990.74
2019-01-31T08:28:12.780Z,990.74
2019-01-31T08:29:12.764Z,990.73
2019-01-31T08:30:12.751Z,990.73
2019-01-31T08:31:12.740Z,990.72
2019-01-31T08:32:15.201Z,990.70
2019-01-31T08:33:12.723Z,990.72
2019-01-31T08:34:19.156Z,990.67
2019-01-31T08:35:12.699Z,990.69
2019-01-31T08:36:12.677Z,990.73
2019-01-31T08:37:12.664Z,990.70
2019-01-31T08:38:12.686Z,990.69
2019-01-31T08:39:12.641Z,990.75
2019-01-31T08:40:12.692Z,990.69
2019-01-31T08:41:12.620Z,990.70
2019-01-31T08:42:12.612Z,990.68
2019-01-31T08:43:12.596Z,990.68
2019-01-31T08:44:12.579Z,990.66
2019-01-31T08:45:12.617Z,990.70
2019-01-31T08:46:12.557Z,990.66
2019-01-31T08:47:12.546Z,990.67
2019-01-31T08:48:12.536Z,990.71
2019-01-31T08:49:12.521Z,990.68
2019-01-31T08:50:12.520Z,990.70
2019-01-31T08:51:12.602Z,990.70
2019-01-31T08:52:12.489Z,990.72
2019-01-31T08:53:12.474Z,990.70
2019-01-31T08:54:12.462Z,990.70
2019-01-31T08:55:12.450Z,990.71
2019-01-31T08:56:12.436Z,990.70
2019-01-31T08:57:12.426Z,990.69
2019-01-31T08:58:12.413Z,990.70
2019-01-31T08:59:12.672Z,990.74
2019-01-31T09:00:12.394Z,990.70
2019-01-31T09:01:12.386Z,990.69
2019-01-31T09:02:12.616Z,990.72
2019-01-31T09:03:12.359Z,990.71
2019-01-31T09:04:12.341Z,990.75
2019-01-31T09:05:12.331Z,990.76
2019-01-31T09:06:14.977Z,990.76
2019-01-31T09:07:12.311Z,990.75
2019-01-31T09:08:12.474Z,990.77
2019-01-31T09:09:12.338Z,990.79
2019-01-31T09:10:12.273Z,990.79
2019-01-31T09:11:12.260Z,990.80
2019-01-31T09:12:15.343Z,990.78
2019-01-31T09:13:13.128Z,990.74
2019-01-31T09:14:12.227Z,990.79
2019-01-31T09:15:24.128Z,990.82
2019-01-31T09:16:12.206Z,990.81
2019-01-31T09:17:12.187Z,990.82
2019-01-31T09:18:12.182Z,990.78
2019-01-31T09:19:12.173Z,990.77
2019-01-31T09:20:12.157Z,990.76
2019-01-31T09:21:12.145Z,990.74
2019-01-31T09:22:12.140Z,990.74
2019-01-31T09:23:12.119Z,990.75
2019-01-31T09:24:12.111Z,990.75
2019-01-31T09:25:12.096Z,990.72
2019-01-31T09:26:12.085Z,990.78
2019-01-31T09:27:12.079Z,990.72
2019-01-31T09:28:12.062Z,990.75
2019-01-31T09:29:12.048Z,990.76
2019-01-31T09:30:12.037Z,990.75
2019-01-31T09:31:12.028Z,990.74
2019-01-31T09:32:12.018Z,990.71
2019-01-31T09:33:12.006Z,990.73
2019-01-31T09:34:11.993Z,990.74
2019-01-31T09:35:11.983Z,990.76
2019-01-31T09:36:11.967Z,990.73
2019-01-31T09:37:11.955Z,990.71
2019-01-31T09:38:11.947Z,990.75
2019-01-31T09:39:11.940Z,990.73
2019-01-31T09:40:11.922Z,990.69
2019-01-31T09:41:11.911Z,990.75
2019-01-31T09:42:11.902Z,990.75
2019-01-31T09:43:11.890Z,990.71
2019-01-31T09:44:11.971Z,990.74
2019-01-31T09:45:11.872Z,990.75
2019-01-31T09:46:11.857Z,990.75
2019-01-31T09:47:11.845Z,990.74
2019-01-31T09:48:11.830Z,990.79
2019-01-31T09:49:11.818Z,990.77
2019-01-31T09:50:11.812Z,990.79
2019-01-31T09:51:11.798Z,990.80
2019-01-31T09:52:11.789Z,990.78
2019-01-31T09:53:11.779Z,990.77
2019-01-31T09:54:11.761Z,990.81
2019-01-31T09:55:11.763Z,990.75
2019-01-31T09:56:11.743Z,990.80
2019-01-31T09:57:11.730Z,990.76
2019-01-31T09:58:11.730Z,990.78
2019-01-31T09:59:11.710Z,990.79
2019-01-31T10:00:11.708Z,990.81
2019-01-31T10:01:11.681Z,990.77
2019-01-31T10:02:11.679Z,990.82
2019-01-31T10:03:11.661Z,990.80
2019-01-31T10:04:11.661Z,990.79
2019-01-31T10:05:11.640Z,990.80
2019-01-31T10:06:11.625Z,990.76
2019-01-31T10:07:11.620Z,990.73
2019-01-31T10:08:11.610Z,990.78
2019-01-31T10:09:11.593Z,990.77
2019-01-31T10:10:11.625Z,990.73
2019-01-31T10:11:11.603Z,990.78
2019-01-31T10:12:11.576Z,990.75
2019-01-31T10:13:11.563Z,990.77
2019-01-31T10:14:11.595Z,990.76
2019-01-31T10:15:11.634Z,990.77
2019-01-31T10:16:11.537Z,990.73
2019-01-31T10:17:11.510Z,990.74
2019-01-31T10:18:11.593Z,990.72
2019-01-31T10:19:11.571Z,990.78
2019-01-31T10:20:11.489Z,990.78
2019-01-31T10:21:11.464Z,990.81
2019-01-31T10:22:11.515Z,990.78
2019-01-31T10:23:11.510Z,990.73
2019-01-31T10:24:11.470Z,990.72
2019-01-31T10:25:11.516Z,990.70
2019-01-31T10:26:11.412Z,990.68
2019-01-31T10:27:11.401Z,990.72
2019-01-31T10:28:11.394Z,990.75
2019-01-31T10:29:11.385Z,990.75
2019-01-31T10:30:11.373Z,990.72
2019-01-31T10:31:11.364Z,990.76
2019-01-31T10:32:11.353Z,990.72
2019-01-31T10:33:11.342Z,990.76
2019-01-31T10:34:11.337Z,990.71
2019-01-31T10:35:11.322Z,990.70
2019-01-31T10:36:11.309Z,990.70
2019-01-31T10:37:11.298Z,990.71
2019-01-31T10:38:11.287Z,990.71
2019-01-31T10:39:11.285Z,990.69
2019-01-31T10:40:11.272Z,990.67
2019-01-31T10:41:11.270Z,990.69
2019-01-31T10:42:11.247Z,990.68
2019-01-31T10:43:11.243Z,990.67
2019-01-31T10:44:11.230Z,990.62
2019-01-31T10:45:11.262Z,990.59
2019-01-31T10:46:11.209Z,990.58
2019-01-31T10:47:11.200Z,990.58
2019-01-31T10:48:11.187Z,990.57
2019-01-31T10:49:11.175Z,990.59
2019-01-31T10:50:11.166Z,990.54
2019-01-31T10:51:11.156Z,990.51
2019-01-31T10:52:11.142Z,990.50
2019-01-31T10:53:11.138Z,990.47
2019-01-31T10:54:11.131Z,990.46
2019-01-31T10:55:11.127Z,990.49
2019-01-31T10:56:11.106Z,990.45
2019-01-31T10:57:11.093Z,990.48
2019-01-31T10:58:11.088Z,990.47
2019-01-31T10:59:11.075Z,990.51
2019-01-31T11:00:11.069Z,990.45
2019-01-31T11:01:11.059Z,990.41
2019-01-31T11:02:11.777Z,990.47
2019-01-31T11:03:11.046Z,990.44
2019-01-31T11:04:11.031Z,990.39
2019-01-31T11:05:11.017Z,990.40
2019-01-31T11:06:11.007Z,990.41
2019-01-31T11:07:10.996Z,990.36
2019-01-31T11:08:10.986Z,990.35
2019-01-31T11:09:10.973Z,990.30
2019-01-31T11:10:10.963Z,990.31
2019-01-31T11:11:10.953Z,990.31
2019-01-31T11:12:10.945Z,990.31
2019-01-31T11:13:10.940Z,990.31
2019-01-31T11:14:10.932Z,990.27
2019-01-31T11:15:10.915Z,990.29
2019-01-31T11:16:10.899Z,990.24
2019-01-31T11:17:10.896Z,990.27
2019-01-31T11:18:10.885Z,990.27
2019-01-31T11:19:12.640Z,990.24
2019-01-31T11:20:10.863Z,990.23
2019-01-31T11:21:10.860Z,990.23
2019-01-31T11:22:10.842Z,990.24
2019-01-31T11:23:10.832Z,990.23
2019-01-31T11:24:10.824Z,990.25
2019-01-31T11:25:10.814Z,990.27
2019-01-31T11:26:10.801Z,990.20
2019-01-31T11:27:10.794Z,990.24
2019-01-31T11:28:10.780Z,990.25
2019-01-31T11:29:10.785Z,990.27
2019-01-31T11:30:10.763Z,990.22
2019-01-31T11:31:10.752Z,990.22
2019-01-31T11:32:10.741Z,990.23
2019-01-31T11:33:10.729Z,990.19
2019-01-31T11:34:10.718Z,990.22
2019-01-31T11:35:10.710Z,990.21
2019-01-31T11:36:10.703Z,990.24
2019-01-31T11:37:10.691Z,990.25
2019-01-31T11:38:10.686Z,990.23
2019-01-31T11:39:10.675Z,990.25
2019-01-31T11:40:10.663Z,990.21
2019-01-31T11:41:10.647Z,990.22
2019-01-31T11:42:10.635Z,990.22
2019-01-31T11:43:11.900Z,990.19
2019-01-31T11:44:10.618Z,990.19
2019-01-31T11:45:10.608Z,990.19
2019-01-31T11:46:10.595Z,990.15
2019-01-31T11:47:10.587Z,990.17
2019-01-31T11:48:10.581Z,990.13
2019-01-31T11:49:10.566Z,990.14
2019-01-31T11:50:10.560Z,990.17
2019-01-31T11:51:10.551Z,990.14
2019-01-31T11:52:11.296Z,990.14
2019-01-31T11:53:10.523Z,990.15
2019-01-31T11:54:10.511Z,990.13
2019-01-31T11:55:10.515Z,990.17
2019-01-31T11:56:10.495Z,990.11
2019-01-31T11:57:10.485Z,990.12
2019-01-31T11:58:10.492Z,990.13
2019-01-31T11:59:10.465Z,990.15
2019-01-31T12:00:10.454Z,990.14
2019-01-31T12:01:10.450Z,990.14
2019-01-31T12:02:11.301Z,990.13
2019-01-31T12:03:10.426Z,990.13
2019-01-31T12:04:10.415Z,990.15
2019-01-31T12:05:10.403Z,990.15
2019-01-31T12:06:10.392Z,990.18
2019-01-31T12:07:10.383Z,990.16
2019-01-31T12:08:10.373Z,990.17
2019-01-31T12:09:10.365Z,990.20
2019-01-31T12:10:10.355Z,990.19
2019-01-31T12:11:10.347Z,990.20
2019-01-31T12:12:10.331Z,990.19
2019-01-31T12:13:10.319Z,990.17
2019-01-31T12:14:10.312Z,990.21
2019-01-31T12:15:10.304Z,990.15
2019-01-31T12:16:10.293Z,990.17
2019-01-31T12:17:10.280Z,990.20
2019-01-31T12:18:10.269Z,990.21
2019-01-31T12:19:10.260Z,990.22
2019-01-31T12:20:10.251Z,990.19
2019-01-31T12:21:10.244Z,990.20
2019-01-31T12:22:10.233Z,990.21
2019-01-31T12:23:10.220Z,990.19
2019-01-31T12:24:16.128Z,990.21
2019-01-31T12:25:10.197Z,990.23
2019-01-31T12:26:10.185Z,990.25
2019-01-31T12:27:10.178Z,990.24
2019-01-31T12:28:10.169Z,990.25